This is the latest recevied weather packets stored in our database for station/object WX4ET. If no packets are shown the sender has not sent any weather packets the latest 1 day(s).
| Time | Temp. | Humidity | Pressure | Rain* | Wind** | Luminosity | Snow |
|---|---|---|---|---|---|---|---|
| 1778018670 | 25° C | 49% | 1006.2 hPa | 0 mm | 1.79 m/s, 272° | 163 W/m² | - |
| 1778018368 | 25.56° C | 48% | 1006 hPa | 0 mm | 2.24 m/s, 283° | 252 W/m² | - |
| 1778018066 | 26.11° C | 49% | 1006 hPa | 0 mm | 0.89 m/s, 188° | 331 W/m² | - |
| 1778017763 | 25.56° C | 49% | 1005.8 hPa | 0 mm | 0.89 m/s, 206° | 314 W/m² | - |
| 1778017461 | 25.56° C | 49% | 1006 hPa | 0 mm | 0.89 m/s, 275° | 354 W/m² | - |
| 1778017158 | 25.56° C | 47% | 1006 hPa | 0 mm | 0.89 m/s, 299° | 349 W/m² | - |
| 1778016856 | 26.11° C | 49% | 1006.1 hPa | 0 mm | 0.89 m/s, 274° | 360 W/m² | - |
| 1778016552 | 25.56° C | 48% | 1006.1 hPa | 0 mm | 2.24 m/s, 323° | 399 W/m² | - |
| 1778016248 | 25° C | 50% | 1006.2 hPa | 0 mm | 1.34 m/s, 206° | 221 W/m² | - |
| 1778015945 | 25° C | 52% | 1006 hPa | 0 mm | 0.89 m/s, 241° | 432 W/m² | - |
| 1778015643 | 25° C | 52% | 1006.2 hPa | 0 mm | 0.45 m/s, 203° | 429 W/m² | - |
| 1778015339 | 25.56° C | 47% | 1006.3 hPa | 0 mm | 1.34 m/s, 5° | 186 W/m² | - |
| 1778015036 | 25.56° C | 47% | 1006.2 hPa | 0 mm | 0.45 m/s, 285° | 448 W/m² | - |
| 1778014733 | 25.56° C | 47% | 1006.2 hPa | 0 mm | 0.89 m/s, 208° | 423 W/m² | - |
| 1778014431 | 25.56° C | 47% | 1006.5 hPa | 0 mm | 0.45 m/s, 88° | 459 W/m² | - |
| 1778014128 | 25.56° C | 46% | 1006.4 hPa | 0 mm | 2.24 m/s, 325° | 486 W/m² | - |
| 1778013826 | 25.56° C | 48% | 1006.5 hPa | 0 mm | 1.79 m/s, 244° | 494 W/m² | - |
| 1778013522 | 25.56° C | 48% | 1006.5 hPa | 0 mm | 1.34 m/s, 208° | 541 W/m² | - |
| 1778013219 | 25.56° C | 47% | 1006.4 hPa | 0 mm | 0.45 m/s, 299° | 530 W/m² | - |
| 1778012915 | 25.56° C | 46% | 1006.5 hPa | 0 mm | 0 m/s | 555 W/m² | - |
| 1778012611 | 25.56° C | 48% | 1006.7 hPa | 0 mm | 1.34 m/s, 243° | 420 W/m² | - |
| 1778012308 | 25° C | 48% | 1006.7 hPa | 0 mm | 1.34 m/s, 267° | 482 W/m² | - |
| 1778012006 | 25° C | 49% | 1006.9 hPa | 0 mm | 1.34 m/s, 261° | 399 W/m² | - |
| 1778011704 | 25° C | 50% | 1007 hPa | 0 mm | 1.34 m/s, 276° | 586 W/m² | - |
| 1778011400 | 25° C | 48% | 1007.2 hPa | 0 mm | 1.34 m/s, 248° | 429 W/m² | - |
* Rain latest hour (hover to see other rain measurements)
** Current wind speed in m/s (hover to see current wind gust speed)